sensor_id;sensor_type;location;lat;lon;timestamp;temperature;humidity
46231;DHT22;31949;51.404;-0.038;2023-11-21T00:01:23;11.40;99.90
46231;DHT22;31949;51.404;-0.038;2023-11-21T00:03:50;11.40;99.90
46231;DHT22;31949;51.404;-0.038;2023-11-21T00:06:21;11.40;99.90
46231;DHT22;31949;51.404;-0.038;2023-11-21T00:08:48;11.40;99.90
46231;DHT22;31949;51.404;-0.038;2023-11-21T00:11:16;11.50;99.90
46231;DHT22;31949;51.404;-0.038;2023-11-21T00:13:43;11.40;99.90
46231;DHT22;31949;51.404;-0.038;2023-11-21T00:16:10;11.40;99.90
46231;DHT22;31949;51.404;-0.038;2023-11-21T00:18:38;11.40;99.90
46231;DHT22;31949;51.404;-0.038;2023-11-21T00:21:05;11.40;99.90
46231;DHT22;31949;51.404;-0.038;2023-11-21T00:23:33;11.50;99.90
46231;DHT22;31949;51.404;-0.038;2023-11-21T00:26:00;11.40;99.90
46231;DHT22;31949;51.404;-0.038;2023-11-21T00:28:27;11.50;99.90
46231;DHT22;31949;51.404;-0.038;2023-11-21T00:30:54;11.50;99.90
46231;DHT22;31949;51.404;-0.038;2023-11-21T00:33:21;11.50;99.90
46231;DHT22;31949;51.404;-0.038;2023-11-21T00:35:49;11.40;99.90
46231;DHT22;31949;51.404;-0.038;2023-11-21T00:38:16;11.50;99.90
46231;DHT22;31949;51.404;-0.038;2023-11-21T00:40:46;11.50;99.90
46231;DHT22;31949;51.404;-0.038;2023-11-21T00:43:14;11.50;99.90
46231;DHT22;31949;51.404;-0.038;2023-11-21T00:45:42;11.50;99.90
46231;DHT22;31949;51.404;-0.038;2023-11-21T00:48:09;11.50;99.90
46231;DHT22;31949;51.404;-0.038;2023-11-21T00:50:36;11.40;99.90
46231;DHT22;31949;51.404;-0.038;2023-11-21T00:53:04;11.40;99.90
46231;DHT22;31949;51.404;-0.038;2023-11-21T00:55:31;11.40;99.90
46231;DHT22;31949;51.404;-0.038;2023-11-21T00:57:59;11.50;99.90
46231;DHT22;31949;51.404;-0.038;2023-11-21T01:00:26;11.50;99.90
46231;DHT22;31949;51.404;-0.038;2023-11-21T01:02:54;11.40;99.90
46231;DHT22;31949;51.404;-0.038;2023-11-21T01:05:21;11.50;99.90
46231;DHT22;31949;51.404;-0.038;2023-11-21T01:07:48;11.40;99.90
46231;DHT22;31949;51.404;-0.038;2023-11-21T01:10:17;11.40;99.90
46231;DHT22;31949;51.404;-0.038;2023-11-21T01:12:44;11.40;99.90
46231;DHT22;31949;51.404;-0.038;2023-11-21T01:15:11;11.40;99.90
46231;DHT22;31949;51.404;-0.038;2023-11-21T01:17:39;11.40;99.90
46231;DHT22;31949;51.404;-0.038;2023-11-21T01:20:08;11.40;99.90
46231;DHT22;31949;51.404;-0.038;2023-11-21T01:22:41;11.50;99.90
46231;DHT22;31949;51.404;-0.038;2023-11-21T01:25:08;11.50;99.90
46231;DHT22;31949;51.404;-0.038;2023-11-21T01:27:36;11.50;99.90
46231;DHT22;31949;51.404;-0.038;2023-11-21T01:30:07;11.50;99.90
46231;DHT22;31949;51.404;-0.038;2023-11-21T01:32:35;11.50;99.90
46231;DHT22;31949;51.404;-0.038;2023-11-21T01:35:03;11.40;99.90
46231;DHT22;31949;51.404;-0.038;2023-11-21T01:37:33;11.40;99.90
46231;DHT22;31949;51.404;-0.038;2023-11-21T01:40:00;11.40;99.90
46231;DHT22;31949;51.404;-0.038;2023-11-21T01:42:29;11.30;99.90
46231;DHT22;31949;51.404;-0.038;2023-11-21T01:44:56;11.30;99.90
46231;DHT22;31949;51.404;-0.038;2023-11-21T01:47:23;11.30;99.90
46231;DHT22;31949;51.404;-0.038;2023-11-21T01:49:51;11.30;99.90
46231;DHT22;31949;51.404;-0.038;2023-11-21T01:52:18;11.30;99.90
46231;DHT22;31949;51.404;-0.038;2023-11-21T01:54:46;11.40;99.90
46231;DHT22;31949;51.404;-0.038;2023-11-21T01:57:14;11.40;99.90
46231;DHT22;31949;51.404;-0.038;2023-11-21T01:59:44;11.40;99.90
46231;DHT22;31949;51.404;-0.038;2023-11-21T02:02:12;11.40;99.90
46231;DHT22;31949;51.404;-0.038;2023-11-21T02:04:40;11.40;99.90
46231;DHT22;31949;51.404;-0.038;2023-11-21T02:07:07;11.40;99.90
46231;DHT22;31949;51.404;-0.038;2023-11-21T02:09:35;11.40;99.90
46231;DHT22;31949;51.404;-0.038;2023-11-21T02:12:05;11.40;99.90
46231;DHT22;31949;51.404;-0.038;2023-11-21T02:14:32;11.50;99.90
46231;DHT22;31949;51.404;-0.038;2023-11-21T02:17:00;11.50;99.90
46231;DHT22;31949;51.404;-0.038;2023-11-21T02:19:28;11.50;99.90
46231;DHT22;31949;51.404;-0.038;2023-11-21T02:21:57;11.50;99.90
46231;DHT22;31949;51.404;-0.038;2023-11-21T02:24:28;11.50;99.90
46231;DHT22;31949;51.404;-0.038;2023-11-21T02:26:55;11.40;99.90
46231;DHT22;31949;51.404;-0.038;2023-11-21T02:29:23;11.50;99.90
46231;DHT22;31949;51.404;-0.038;2023-11-21T02:31:55;11.60;99.90
46231;DHT22;31949;51.404;-0.038;2023-11-21T02:34:23;11.60;99.90
46231;DHT22;31949;51.404;-0.038;2023-11-21T02:36:52;11.60;99.90
46231;DHT22;31949;51.404;-0.038;2023-11-21T02:39:21;11.60;99.90
46231;DHT22;31949;51.404;-0.038;2023-11-21T02:41:51;11.60;99.90
46231;DHT22;31949;51.404;-0.038;2023-11-21T02:44:19;11.50;99.90
46231;DHT22;31949;51.404;-0.038;2023-11-21T02:46:46;11.40;99.90
46231;DHT22;31949;51.404;-0.038;2023-11-21T02:49:14;11.40;99.90
46231;DHT22;31949;51.404;-0.038;2023-11-21T02:51:41;11.40;99.90
46231;DHT22;31949;51.404;-0.038;2023-11-21T02:54:08;11.30;99.90
46231;DHT22;31949;51.404;-0.038;2023-11-21T02:56:35;11.30;99.90
46231;DHT22;31949;51.404;-0.038;2023-11-21T02:59:03;11.20;99.90
46231;DHT22;31949;51.404;-0.038;2023-11-21T03:01:30;11.30;99.90
46231;DHT22;31949;51.404;-0.038;2023-11-21T03:03:58;11.20;99.90
46231;DHT22;31949;51.404;-0.038;2023-11-21T03:06:25;11.20;99.90
46231;DHT22;31949;51.404;-0.038;2023-11-21T03:08:52;11.20;99.90
46231;DHT22;31949;51.404;-0.038;2023-11-21T03:11:19;11.20;99.90
46231;DHT22;31949;51.404;-0.038;2023-11-21T03:13:47;11.10;99.90
46231;DHT22;31949;51.404;-0.038;2023-11-21T03:16:16;11.20;99.90
46231;DHT22;31949;51.404;-0.038;2023-11-21T03:18:43;11.10;99.90
46231;DHT22;31949;51.404;-0.038;2023-11-21T03:21:12;11.10;99.90
46231;DHT22;31949;51.404;-0.038;2023-11-21T03:23:40;11.10;99.90
46231;DHT22;31949;51.404;-0.038;2023-11-21T03:26:12;11.10;99.90
46231;DHT22;31949;51.404;-0.038;2023-11-21T03:28:40;11.10;99.90
46231;DHT22;31949;51.404;-0.038;2023-11-21T03:31:07;11.10;99.90
46231;DHT22;31949;51.404;-0.038;2023-11-21T03:33:36;11.10;99.90
46231;DHT22;31949;51.404;-0.038;2023-11-21T03:36:03;11.10;99.90
46231;DHT22;31949;51.404;-0.038;2023-11-21T03:38:31;11.10;99.90
46231;DHT22;31949;51.404;-0.038;2023-11-21T03:40:58;11.10;99.90
46231;DHT22;31949;51.404;-0.038;2023-11-21T03:43:28;11.10;99.90
46231;DHT22;31949;51.404;-0.038;2023-11-21T03:45:55;11.10;99.90
46231;DHT22;31949;51.404;-0.038;2023-11-21T03:48:22;11.10;99.90
46231;DHT22;31949;51.404;-0.038;2023-11-21T03:50:49;11.10;99.90
46231;DHT22;31949;51.404;-0.038;2023-11-21T03:53:17;11.10;99.90
46231;DHT22;31949;51.404;-0.038;2023-11-21T03:55:44;11.10;99.90
46231;DHT22;31949;51.404;-0.038;2023-11-21T03:58:11;11.10;99.90
46231;DHT22;31949;51.404;-0.038;2023-11-21T04:00:39;11.10;99.90
46231;DHT22;31949;51.404;-0.038;2023-11-21T04:03:06;11.10;99.90
46231;DHT22;31949;51.404;-0.038;2023-11-21T04:05:33;11.10;99.90
46231;DHT22;31949;51.404;-0.038;2023-11-21T04:08:01;11.10;99.90
46231;DHT22;31949;51.404;-0.038;2023-11-21T04:10:28;11.00;99.90
46231;DHT22;31949;51.404;-0.038;2023-11-21T04:12:55;11.00;99.90
46231;DHT22;31949;51.404;-0.038;2023-11-21T04:15:23;11.00;99.90
46231;DHT22;31949;51.404;-0.038;2023-11-21T04:17:50;11.00;99.90
46231;DHT22;31949;51.404;-0.038;2023-11-21T04:20:17;11.10;99.90
46231;DHT22;31949;51.404;-0.038;2023-11-21T04:22:45;11.10;99.90
46231;DHT22;31949;51.404;-0.038;2023-11-21T04:25:14;11.10;99.90
46231;DHT22;31949;51.404;-0.038;2023-11-21T04:27:43;11.10;99.90
46231;DHT22;31949;51.404;-0.038;2023-11-21T04:30:12;11.10;99.90
46231;DHT22;31949;51.404;-0.038;2023-11-21T04:32:40;11.10;99.90
46231;DHT22;31949;51.404;-0.038;2023-11-21T04:35:09;11.10;99.90
46231;DHT22;31949;51.404;-0.038;2023-11-21T04:37:36;11.10;99.90
46231;DHT22;31949;51.404;-0.038;2023-11-21T04:40:04;11.10;99.90
46231;DHT22;31949;51.404;-0.038;2023-11-21T04:42:35;11.10;99.90
46231;DHT22;31949;51.404;-0.038;2023-11-21T04:45:06;11.10;99.90
46231;DHT22;31949;51.404;-0.038;2023-11-21T04:47:39;11.20;99.90
46231;DHT22;31949;51.404;-0.038;2023-11-21T04:50:06;11.20;99.90
46231;DHT22;31949;51.404;-0.038;2023-11-21T04:52:33;11.20;99.90
46231;DHT22;31949;51.404;-0.038;2023-11-21T04:55:00;11.10;99.90
46231;DHT22;31949;51.404;-0.038;2023-11-21T04:57:29;11.10;99.90
46231;DHT22;31949;51.404;-0.038;2023-11-21T04:59:57;11.00;99.90
46231;DHT22;31949;51.404;-0.038;2023-11-21T05:02:24;10.90;99.90
46231;DHT22;31949;51.404;-0.038;2023-11-21T05:05:02;10.90;99.90
46231;DHT22;31949;51.404;-0.038;2023-11-21T05:07:30;10.90;99.90
46231;DHT22;31949;51.404;-0.038;2023-11-21T05:09:58;10.80;99.90
46231;DHT22;31949;51.404;-0.038;2023-11-21T05:12:26;10.80;99.90
46231;DHT22;31949;51.404;-0.038;2023-11-21T05:14:53;10.80;99.90
46231;DHT22;31949;51.404;-0.038;2023-11-21T05:17:21;10.70;99.90
46231;DHT22;31949;51.404;-0.038;2023-11-21T05:19:49;10.70;99.90
46231;DHT22;31949;51.404;-0.038;2023-11-21T05:22:16;10.70;99.90
46231;DHT22;31949;51.404;-0.038;2023-11-21T05:24:44;10.70;99.90
46231;DHT22;31949;51.404;-0.038;2023-11-21T05:27:11;10.70;99.90
46231;DHT22;31949;51.404;-0.038;2023-11-21T05:29:38;10.70;99.90
46231;DHT22;31949;51.404;-0.038;2023-11-21T05:32:05;10.70;99.90
46231;DHT22;31949;51.404;-0.038;2023-11-21T05:34:33;10.70;99.90
46231;DHT22;31949;51.404;-0.038;2023-11-21T05:37:00;10.70;99.90
46231;DHT22;31949;51.404;-0.038;2023-11-21T05:39:27;10.70;99.90
46231;DHT22;31949;51.404;-0.038;2023-11-21T05:41:55;10.70;99.90
46231;DHT22;31949;51.404;-0.038;2023-11-21T05:44:22;10.60;99.90
46231;DHT22;31949;51.404;-0.038;2023-11-21T05:46:50;10.70;99.90
46231;DHT22;31949;51.404;-0.038;2023-11-21T05:49:18;10.60;99.90
46231;DHT22;31949;51.404;-0.038;2023-11-21T05:51:48;10.60;99.90
46231;DHT22;31949;51.404;-0.038;2023-11-21T05:54:16;10.60;99.90
46231;DHT22;31949;51.404;-0.038;2023-11-21T05:56:43;10.60;99.90
46231;DHT22;31949;51.404;-0.038;2023-11-21T05:59:11;10.60;99.90
46231;DHT22;31949;51.404;-0.038;2023-11-21T06:01:38;10.60;99.90
46231;DHT22;31949;51.404;-0.038;2023-11-21T06:04:06;10.60;99.90
46231;DHT22;31949;51.404;-0.038;2023-11-21T06:06:36;10.60;99.90
46231;DHT22;31949;51.404;-0.038;2023-11-21T06:09:03;10.60;99.90
46231;DHT22;31949;51.404;-0.038;2023-11-21T06:11:30;10.60;99.90
46231;DHT22;31949;51.404;-0.038;2023-11-21T06:13:57;10.60;99.90
46231;DHT22;31949;51.404;-0.038;2023-11-21T06:16:25;10.50;99.90
46231;DHT22;31949;51.404;-0.038;2023-11-21T06:18:52;10.50;99.90
46231;DHT22;31949;51.404;-0.038;2023-11-21T06:21:20;10.50;99.90
46231;DHT22;31949;51.404;-0.038;2023-11-21T06:23:47;10.50;99.90
46231;DHT22;31949;51.404;-0.038;2023-11-21T06:26:18;10.50;99.90
46231;DHT22;31949;51.404;-0.038;2023-11-21T06:28:46;10.50;99.90
46231;DHT22;31949;51.404;-0.038;2023-11-21T06:31:13;10.40;99.90
46231;DHT22;31949;51.404;-0.038;2023-11-21T06:33:41;10.40;99.90
46231;DHT22;31949;51.404;-0.038;2023-11-21T06:36:08;10.50;99.90
46231;DHT22;31949;51.404;-0.038;2023-11-21T06:38:38;10.40;99.90
46231;DHT22;31949;51.404;-0.038;2023-11-21T06:41:06;10.40;99.90
46231;DHT22;31949;51.404;-0.038;2023-11-21T06:43:34;10.50;99.90
46231;DHT22;31949;51.404;-0.038;2023-11-21T06:46:01;10.50;99.90
46231;DHT22;31949;51.404;-0.038;2023-11-21T06:48:29;10.50;99.90
46231;DHT22;31949;51.404;-0.038;2023-11-21T06:50:57;10.50;99.90
46231;DHT22;31949;51.404;-0.038;2023-11-21T06:53:24;10.40;99.90
46231;DHT22;31949;51.404;-0.038;2023-11-21T06:55:51;10.40;99.90
46231;DHT22;31949;51.404;-0.038;2023-11-21T06:58:19;10.40;99.90
46231;DHT22;31949;51.404;-0.038;2023-11-21T07:00:46;10.40;99.90
46231;DHT22;31949;51.404;-0.038;2023-11-21T07:03:14;10.40;99.90
46231;DHT22;31949;51.404;-0.038;2023-11-21T07:05:41;10.30;99.90
46231;DHT22;31949;51.404;-0.038;2023-11-21T07:08:08;10.20;99.90
46231;DHT22;31949;51.404;-0.038;2023-11-21T07:10:36;10.20;99.90
46231;DHT22;31949;51.404;-0.038;2023-11-21T07:13:04;10.20;99.90
46231;DHT22;31949;51.404;-0.038;2023-11-21T07:15:31;10.20;99.90
46231;DHT22;31949;51.404;-0.038;2023-11-21T07:17:58;10.20;99.90
46231;DHT22;31949;51.404;-0.038;2023-11-21T07:20:25;10.20;99.90
46231;DHT22;31949;51.404;-0.038;2023-11-21T07:22:53;10.20;99.90
46231;DHT22;31949;51.404;-0.038;2023-11-21T07:25:21;10.20;99.90
46231;DHT22;31949;51.404;-0.038;2023-11-21T07:27:49;10.20;99.90
46231;DHT22;31949;51.404;-0.038;2023-11-21T07:30:16;10.20;99.90
46231;DHT22;31949;51.404;-0.038;2023-11-21T07:32:44;10.20;99.90
46231;DHT22;31949;51.404;-0.038;2023-11-21T07:35:13;10.20;99.90
46231;DHT22;31949;51.404;-0.038;2023-11-21T07:37:41;10.20;99.90
46231;DHT22;31949;51.404;-0.038;2023-11-21T07:40:08;10.20;99.90
46231;DHT22;31949;51.404;-0.038;2023-11-21T07:42:37;10.20;99.90
46231;DHT22;31949;51.404;-0.038;2023-11-21T07:45:05;10.20;99.90
46231;DHT22;31949;51.404;-0.038;2023-11-21T07:47:34;10.20;99.90
46231;DHT22;31949;51.404;-0.038;2023-11-21T07:50:03;10.20;99.90
46231;DHT22;31949;51.404;-0.038;2023-11-21T07:52:31;10.10;99.90
46231;DHT22;31949;51.404;-0.038;2023-11-21T07:54:59;10.10;99.90
46231;DHT22;31949;51.404;-0.038;2023-11-21T07:57:26;10.10;99.90
46231;DHT22;31949;51.404;-0.038;2023-11-21T07:59:53;10.10;99.90
46231;DHT22;31949;51.404;-0.038;2023-11-21T08:02:22;10.10;99.90
46231;DHT22;31949;51.404;-0.038;2023-11-21T08:04:49;10.10;99.90
46231;DHT22;31949;51.404;-0.038;2023-11-21T08:07:17;10.00;99.90
46231;DHT22;31949;51.404;-0.038;2023-11-21T08:09:45;10.10;99.90
46231;DHT22;31949;51.404;-0.038;2023-11-21T08:12:13;10.10;99.90
46231;DHT22;31949;51.404;-0.038;2023-11-21T08:14:42;10.10;99.90
46231;DHT22;31949;51.404;-0.038;2023-11-21T08:17:10;10.10;99.90
46231;DHT22;31949;51.404;-0.038;2023-11-21T08:19:38;10.10;99.90
46231;DHT22;31949;51.404;-0.038;2023-11-21T08:22:05;10.10;99.90
46231;DHT22;31949;51.404;-0.038;2023-11-21T08:24:34;10.10;99.90
46231;DHT22;31949;51.404;-0.038;2023-11-21T08:27:01;10.10;99.90
46231;DHT22;31949;51.404;-0.038;2023-11-21T08:29:29;10.10;99.90
46231;DHT22;31949;51.404;-0.038;2023-11-21T08:31:58;10.10;99.90
46231;DHT22;31949;51.404;-0.038;2023-11-21T08:34:27;10.10;99.90
46231;DHT22;31949;51.404;-0.038;2023-11-21T08:36:55;10.10;99.90
46231;DHT22;31949;51.404;-0.038;2023-11-21T08:39:24;10.00;99.90
46231;DHT22;31949;51.404;-0.038;2023-11-21T08:41:51;10.00;99.90
46231;DHT22;31949;51.404;-0.038;2023-11-21T08:44:18;10.00;99.90
46231;DHT22;31949;51.404;-0.038;2023-11-21T08:46:46;9.90;99.90
46231;DHT22;31949;51.404;-0.038;2023-11-21T08:49:14;9.90;99.90
46231;DHT22;31949;51.404;-0.038;2023-11-21T08:51:44;9.90;99.90
46231;DHT22;31949;51.404;-0.038;2023-11-21T08:54:11;9.80;99.90
46231;DHT22;31949;51.404;-0.038;2023-11-21T08:56:39;9.90;99.90
46231;DHT22;31949;51.404;-0.038;2023-11-21T08:59:06;9.90;99.90
46231;DHT22;31949;51.404;-0.038;2023-11-21T09:01:35;10.00;99.90
46231;DHT22;31949;51.404;-0.038;2023-11-21T09:04:02;10.00;99.90
46231;DHT22;31949;51.404;-0.038;2023-11-21T09:06:29;10.00;99.90
46231;DHT22;31949;51.404;-0.038;2023-11-21T09:08:56;10.00;99.90
46231;DHT22;31949;51.404;-0.038;2023-11-21T09:11:24;10.00;99.90
46231;DHT22;31949;51.404;-0.038;2023-11-21T09:13:52;10.00;99.90
46231;DHT22;31949;51.404;-0.038;2023-11-21T09:16:19;10.10;99.90
46231;DHT22;31949;51.404;-0.038;2023-11-21T09:18:47;10.00;99.90
46231;DHT22;31949;51.404;-0.038;2023-11-21T09:21:14;10.00;99.90
46231;DHT22;31949;51.404;-0.038;2023-11-21T09:23:45;10.10;99.90
46231;DHT22;31949;51.404;-0.038;2023-11-21T09:26:13;10.10;99.90
46231;DHT22;31949;51.404;-0.038;2023-11-21T09:28:45;10.10;99.90
46231;DHT22;31949;51.404;-0.038;2023-11-21T09:31:16;10.10;99.90
46231;DHT22;31949;51.404;-0.038;2023-11-21T09:33:43;10.20;99.90
46231;DHT22;31949;51.404;-0.038;2023-11-21T09:36:12;10.20;99.90
46231;DHT22;31949;51.404;-0.038;2023-11-21T09:38:43;10.20;99.90
46231;DHT22;31949;51.404;-0.038;2023-11-21T09:41:28;10.30;99.90
46231;DHT22;31949;51.404;-0.038;2023-11-21T09:43:59;10.30;99.90
46231;DHT22;31949;51.404;-0.038;2023-11-21T09:46:28;10.40;99.90
46231;DHT22;31949;51.404;-0.038;2023-11-21T09:49:00;10.40;99.90
46231;DHT22;31949;51.404;-0.038;2023-11-21T09:51:30;10.40;99.90
46231;DHT22;31949;51.404;-0.038;2023-11-21T09:54:02;10.40;99.90
46231;DHT22;31949;51.404;-0.038;2023-11-21T09:56:33;10.50;99.90
46231;DHT22;31949;51.404;-0.038;2023-11-21T09:59:01;10.50;99.90
46231;DHT22;31949;51.404;-0.038;2023-11-21T10:01:35;10.60;99.90
46231;DHT22;31949;51.404;-0.038;2023-11-21T10:04:03;10.50;99.90
46231;DHT22;31949;51.404;-0.038;2023-11-21T10:06:32;10.50;99.90
46231;DHT22;31949;51.404;-0.038;2023-11-21T10:09:00;10.50;99.90
46231;DHT22;31949;51.404;-0.038;2023-11-21T10:11:29;10.60;99.90
46231;DHT22;31949;51.404;-0.038;2023-11-21T10:13:57;10.60;99.90
46231;DHT22;31949;51.404;-0.038;2023-11-21T10:16:28;10.60;99.90
46231;DHT22;31949;51.404;-0.038;2023-11-21T10:18:56;10.70;99.90
46231;DHT22;31949;51.404;-0.038;2023-11-21T10:21:40;10.70;99.90
46231;DHT22;31949;51.404;-0.038;2023-11-21T10:24:07;10.70;99.90
46231;DHT22;31949;51.404;-0.038;2023-11-21T10:26:35;10.80;99.90
46231;DHT22;31949;51.404;-0.038;2023-11-21T10:29:19;10.70;99.90
46231;DHT22;31949;51.404;-0.038;2023-11-21T10:31:50;10.80;99.90
46231;DHT22;31949;51.404;-0.038;2023-11-21T10:34:19;10.80;99.90
46231;DHT22;31949;51.404;-0.038;2023-11-21T10:36:47;10.90;99.90
46231;DHT22;31949;51.404;-0.038;2023-11-21T10:39:20;10.90;99.90
46231;DHT22;31949;51.404;-0.038;2023-11-21T10:41:48;10.90;99.90
46231;DHT22;31949;51.404;-0.038;2023-11-21T10:44:17;10.90;99.90
46231;DHT22;31949;51.404;-0.038;2023-11-21T10:46:51;11.00;99.90
46231;DHT22;31949;51.404;-0.038;2023-11-21T10:49:20;10.90;99.90
46231;DHT22;31949;51.404;-0.038;2023-11-21T10:51:47;10.90;99.90
46231;DHT22;31949;51.404;-0.038;2023-11-21T10:54:23;10.90;99.90
46231;DHT22;31949;51.404;-0.038;2023-11-21T10:56:59;10.90;99.90
46231;DHT22;31949;51.404;-0.038;2023-11-21T10:59:31;11.00;99.90
46231;DHT22;31949;51.404;-0.038;2023-11-21T11:02:00;11.00;99.90
46231;DHT22;31949;51.404;-0.038;2023-11-21T11:04:30;11.00;99.90
46231;DHT22;31949;51.404;-0.038;2023-11-21T11:07:03;11.10;99.90
46231;DHT22;31949;51.404;-0.038;2023-11-21T11:09:33;11.10;99.90
46231;DHT22;31949;51.404;-0.038;2023-11-21T11:12:04;11.10;99.90
46231;DHT22;31949;51.404;-0.038;2023-11-21T11:14:34;11.00;99.90
46231;DHT22;31949;51.404;-0.038;2023-11-21T11:17:02;11.10;99.90
46231;DHT22;31949;51.404;-0.038;2023-11-21T11:19:31;11.10;99.90
46231;DHT22;31949;51.404;-0.038;2023-11-21T11:36:15;11.20;99.90
46231;DHT22;31949;51.404;-0.038;2023-11-21T11:38:47;11.20;99.90
46231;DHT22;31949;51.404;-0.038;2023-11-21T11:41:27;11.20;99.90
46231;DHT22;31949;51.404;-0.038;2023-11-21T11:43:56;11.20;99.90
46231;DHT22;31949;51.404;-0.038;2023-11-21T11:46:42;11.30;99.90
46231;DHT22;31949;51.404;-0.038;2023-11-21T11:49:27;11.30;99.90
46231;DHT22;31949;51.404;-0.038;2023-11-21T11:55:00;11.30;99.90
46231;DHT22;31949;51.404;-0.038;2023-11-21T11:57:30;11.30;99.90
46231;DHT22;31949;51.404;-0.038;2023-11-21T12:02:51;11.30;99.90
46231;DHT22;31949;51.404;-0.038;2023-11-21T12:05:20;11.30;99.90
46231;DHT22;31949;51.404;-0.038;2023-11-21T12:07:52;11.30;99.90
46231;DHT22;31949;51.404;-0.038;2023-11-21T12:10:25;11.30;99.90
46231;DHT22;31949;51.404;-0.038;2023-11-21T12:13:06;11.30;99.90
46231;DHT22;31949;51.404;-0.038;2023-11-21T12:15:38;11.30;99.90
46231;DHT22;31949;51.404;-0.038;2023-11-21T12:18:07;11.30;99.90
46231;DHT22;31949;51.404;-0.038;2023-11-21T12:20:35;11.40;99.90
46231;DHT22;31949;51.404;-0.038;2023-11-21T12:23:06;11.40;99.90
46231;DHT22;31949;51.404;-0.038;2023-11-21T12:25:36;11.40;99.90
46231;DHT22;31949;51.404;-0.038;2023-11-21T12:28:04;11.40;99.90
46231;DHT22;31949;51.404;-0.038;2023-11-21T12:30:36;11.40;99.90
46231;DHT22;31949;51.404;-0.038;2023-11-21T12:33:05;11.40;99.90
46231;DHT22;31949;51.404;-0.038;2023-11-21T12:35:36;11.40;99.90
46231;DHT22;31949;51.404;-0.038;2023-11-21T12:38:05;11.40;99.90
46231;DHT22;31949;51.404;-0.038;2023-11-21T12:40:33;11.50;99.90
46231;DHT22;31949;51.404;-0.038;2023-11-21T12:43:00;11.50;99.90
46231;DHT22;31949;51.404;-0.038;2023-11-21T12:45:32;11.50;99.90
46231;DHT22;31949;51.404;-0.038;2023-11-21T12:48:05;11.50;99.90
46231;DHT22;31949;51.404;-0.038;2023-11-21T12:50:39;11.50;99.90
46231;DHT22;31949;51.404;-0.038;2023-11-21T12:53:08;11.60;99.90
46231;DHT22;31949;51.404;-0.038;2023-11-21T12:55:37;11.50;99.90
46231;DHT22;31949;51.404;-0.038;2023-11-21T12:58:07;11.60;99.90
46231;DHT22;31949;51.404;-0.038;2023-11-21T13:00:44;11.60;99.90
46231;DHT22;31949;51.404;-0.038;2023-11-21T13:03:13;11.70;99.90
46231;DHT22;31949;51.404;-0.038;2023-11-21T13:05:46;11.70;99.90
46231;DHT22;31949;51.404;-0.038;2023-11-21T13:08:15;11.70;99.90
46231;DHT22;31949;51.404;-0.038;2023-11-21T13:10:51;11.70;99.90
46231;DHT22;31949;51.404;-0.038;2023-11-21T13:13:19;11.80;99.90
46231;DHT22;31949;51.404;-0.038;2023-11-21T13:15:53;11.80;99.90
46231;DHT22;31949;51.404;-0.038;2023-11-21T13:18:23;11.80;99.90
46231;DHT22;31949;51.404;-0.038;2023-11-21T13:20:50;11.90;99.90
46231;DHT22;31949;51.404;-0.038;2023-11-21T13:23:19;11.90;99.90
46231;DHT22;31949;51.404;-0.038;2023-11-21T13:25:46;11.90;99.90
46231;DHT22;31949;51.404;-0.038;2023-11-21T13:28:27;11.80;99.90
46231;DHT22;31949;51.404;-0.038;2023-11-21T13:31:00;11.90;99.90
46231;DHT22;31949;51.404;-0.038;2023-11-21T13:33:38;11.90;99.90
46231;DHT22;31949;51.404;-0.038;2023-11-21T13:36:08;11.90;99.90
46231;DHT22;31949;51.404;-0.038;2023-11-21T13:38:38;11.90;99.90
46231;DHT22;31949;51.404;-0.038;2023-11-21T13:41:10;11.90;99.90
46231;DHT22;31949;51.404;-0.038;2023-11-21T13:43:39;11.90;99.90
46231;DHT22;31949;51.404;-0.038;2023-11-21T13:46:11;12.00;99.90
46231;DHT22;31949;51.404;-0.038;2023-11-21T13:48:43;12.00;99.90
46231;DHT22;31949;51.404;-0.038;2023-11-21T13:51:18;12.00;99.90
46231;DHT22;31949;51.404;-0.038;2023-11-21T13:53:48;12.00;99.90
46231;DHT22;31949;51.404;-0.038;2023-11-21T13:56:18;12.00;99.90
46231;DHT22;31949;51.404;-0.038;2023-11-21T13:58:53;12.00;99.90
46231;DHT22;31949;51.404;-0.038;2023-11-21T14:01:24;12.00;99.90
46231;DHT22;31949;51.404;-0.038;2023-11-21T14:04:03;12.10;99.90
46231;DHT22;31949;51.404;-0.038;2023-11-21T14:06:36;11.90;99.90
46231;DHT22;31949;51.404;-0.038;2023-11-21T14:09:21;11.80;99.90
46231;DHT22;31949;51.404;-0.038;2023-11-21T14:12:03;11.70;99.90
46231;DHT22;31949;51.404;-0.038;2023-11-21T14:14:33;11.50;99.90
46231;DHT22;31949;51.404;-0.038;2023-11-21T14:17:01;11.40;99.90
46231;DHT22;31949;51.404;-0.038;2023-11-21T14:19:34;11.30;99.90
46231;DHT22;31949;51.404;-0.038;2023-11-21T14:22:04;11.10;99.90
46231;DHT22;31949;51.404;-0.038;2023-11-21T14:24:31;11.10;99.90
46231;DHT22;31949;51.404;-0.038;2023-11-21T14:26:59;11.10;99.90
46231;DHT22;31949;51.404;-0.038;2023-11-21T14:29:27;11.00;99.90
46231;DHT22;31949;51.404;-0.038;2023-11-21T14:31:56;11.00;99.90
46231;DHT22;31949;51.404;-0.038;2023-11-21T14:34:25;11.00;99.90
46231;DHT22;31949;51.404;-0.038;2023-11-21T14:36:53;11.00;99.90
46231;DHT22;31949;51.404;-0.038;2023-11-21T14:39:21;11.00;99.90
46231;DHT22;31949;51.404;-0.038;2023-11-21T14:41:55;11.10;99.90
46231;DHT22;31949;51.404;-0.038;2023-11-21T14:44:23;11.10;99.90
46231;DHT22;31949;51.404;-0.038;2023-11-21T14:46:53;11.10;99.90
46231;DHT22;31949;51.404;-0.038;2023-11-21T14:49:25;11.10;99.90
46231;DHT22;31949;51.404;-0.038;2023-11-21T14:51:55;11.20;99.90
46231;DHT22;31949;51.404;-0.038;2023-11-21T14:54:22;11.20;99.90
46231;DHT22;31949;51.404;-0.038;2023-11-21T14:57:10;11.20;99.90
46231;DHT22;31949;51.404;-0.038;2023-11-21T14:59:46;11.20;99.90
46231;DHT22;31949;51.404;-0.038;2023-11-21T15:02:25;11.20;99.90
46231;DHT22;31949;51.404;-0.038;2023-11-21T15:05:11;11.20;99.90
46231;DHT22;31949;51.404;-0.038;2023-11-21T15:07:44;11.10;99.90
46231;DHT22;31949;51.404;-0.038;2023-11-21T15:10:16;11.10;99.90
46231;DHT22;31949;51.404;-0.038;2023-11-21T15:12:46;11.00;99.90
46231;DHT22;31949;51.404;-0.038;2023-11-21T15:15:14;11.00;99.90
46231;DHT22;31949;51.404;-0.038;2023-11-21T15:17:41;11.00;99.90
46231;DHT22;31949;51.404;-0.038;2023-11-21T15:20:11;11.00;99.90
46231;DHT22;31949;51.404;-0.038;2023-11-21T15:22:46;11.00;99.90
46231;DHT22;31949;51.404;-0.038;2023-11-21T15:25:13;11.10;99.90
46231;DHT22;31949;51.404;-0.038;2023-11-21T15:27:41;11.00;99.90
46231;DHT22;31949;51.404;-0.038;2023-11-21T15:30:08;11.00;99.90
46231;DHT22;31949;51.404;-0.038;2023-11-21T15:32:36;11.00;99.90
46231;DHT22;31949;51.404;-0.038;2023-11-21T15:35:03;11.00;99.90
46231;DHT22;31949;51.404;-0.038;2023-11-21T15:37:31;11.00;99.90
46231;DHT22;31949;51.404;-0.038;2023-11-21T15:40:01;11.00;99.90
46231;DHT22;31949;51.404;-0.038;2023-11-21T15:42:28;10.90;99.90
46231;DHT22;31949;51.404;-0.038;2023-11-21T15:44:55;11.00;99.90
46231;DHT22;31949;51.404;-0.038;2023-11-21T15:47:23;11.00;99.90
46231;DHT22;31949;51.404;-0.038;2023-11-21T15:49:51;11.00;99.90